Time;durP1;ratioP1;P1;durP2;ratioP2;P2;SDS_P1;SDS_P2;PMS_P1;PMS_P2;Temp;Humidity;BMP_temperature;BMP_pressure;BME280_temperature;BME280_humidity;BME280_pressure;Samples;Min_cycle;Max_cycle;Signal;HPM_P1;HPM_P2
2022/09/15 00:02:14;;;;;;;5.05;4.18;;;19.70;99.90;;;;;;10389649;28;20267;-89
2022/09/15 00:07:17;;;;;;;4.88;3.65;;;19.70;99.90;;;;;;10461074;28;20225;-88
2022/09/15 00:12:20;;;;;;;4.15;3.60;;;19.80;99.90;;;;;;10416217;28;20231;-87
2022/09/15 00:17:22;;;;;;;6.70;4.38;;;19.80;99.90;;;;;;10410292;28;20259;-89
2022/09/15 00:22:25;;;;;;;7.55;4.20;;;19.80;99.90;;;;;;10451185;28;20700;-89
2022/09/15 00:27:27;;;;;;;4.45;3.42;;;19.80;99.90;;;;;;10450730;28;20226;-89
2022/09/15 00:32:30;;;;;;;4.40;3.88;;;19.80;99.90;;;;;;10450561;28;20238;-89
2022/09/15 00:37:33;;;;;;;4.40;3.50;;;19.80;99.90;;;;;;10450916;28;20227;-89
2022/09/15 00:42:35;;;;;;;4.13;3.72;;;19.80;99.90;;;;;;10431057;28;20243;-89
2022/09/15 00:47:38;;;;;;;5.07;3.67;;;19.80;99.90;;;;;;10424633;28;20204;-90
2022/09/15 00:52:59;;;;;;;4.10;3.58;;;19.80;99.90;;;;;;10435914;28;20195;-89
2022/09/15 00:58:06;;;;;;;6.53;4.03;;;19.90;99.90;;;;;;10442629;28;20269;-90
2022/09/15 01:03:08;;;;;;;5.40;3.58;;;19.90;99.90;;;;;;10455116;28;20219;-91
2022/09/15 01:08:21;;;;;;;6.05;4.35;;;19.90;99.90;;;;;;10446935;28;20257;-90
2022/09/15 01:13:24;;;;;;;6.15;4.10;;;19.90;99.90;;;;;;10410712;28;20211;-89
2022/09/15 01:18:57;;;;;;;4.22;3.55;;;19.90;99.90;;;;;;10410621;28;20240;-91
2022/09/15 01:24:21;;;;;;;4.90;4.32;;;19.90;99.90;;;;;;10448891;28;20288;-91
2022/09/15 01:29:53;;;;;;;6.10;3.65;;;19.90;99.90;;;;;;10440672;28;20671;-91
2022/09/15 01:35:14;;;;;;;5.32;4.35;;;19.80;99.90;;;;;;10431004;28;20208;-91
2022/09/15 01:40:19;;;;;;;4.97;4.45;;;19.80;99.90;;;;;;10427157;28;20284;-91
2022/09/15 01:45:29;;;;;;;4.63;3.90;;;19.90;99.90;;;;;;10471473;28;20253;-92
2022/09/15 01:50:37;;;;;;;4.05;3.50;;;19.80;99.90;;;;;;10399708;28;20246;-92
2022/09/15 01:55:55;;;;;;;6.88;3.97;;;19.90;99.90;;;;;;10454145;28;20238;-91
2022/09/15 02:01:28;;;;;;;5.88;4.22;;;19.90;99.90;;;;;;10413640;28;20251;-91
2022/09/15 02:06:39;;;;;;;4.03;3.60;;;19.90;99.90;;;;;;10424124;28;20732;-91
2022/09/15 02:12:11;;;;;;;5.03;4.28;;;19.90;99.90;;;;;;10457272;28;20199;-91
2022/09/15 02:17:17;;;;;;;4.75;4.20;;;19.90;99.90;;;;;;10437108;28;20288;-91
2022/09/15 02:22:26;;;;;;;5.78;3.60;;;19.90;99.90;;;;;;10456658;28;20227;-90
2022/09/15 02:27:36;;;;;;;3.95;3.65;;;19.90;99.90;;;;;;10471627;28;20223;-90
2022/09/15 02:32:46;;;;;;;4.50;4.00;;;19.90;99.90;;;;;;10439357;28;20621;-91
2022/09/15 02:37:50;;;;;;;4.22;3.33;;;19.90;99.90;;;;;;10439549;28;20207;-91
2022/09/15 02:42:55;;;;;;;3.63;3.33;;;19.90;99.90;;;;;;10453187;28;20222;-91
2022/09/15 02:47:58;;;;;;;3.97;3.65;;;19.90;99.90;;;;;;10438631;28;20253;-91
2022/09/15 02:53:00;;;;;;;4.28;3.63;;;19.90;99.90;;;;;;10440955;28;20255;-92
2022/09/15 02:58:03;;;;;;;5.57;3.88;;;19.80;99.90;;;;;;10430352;28;20208;-91
2022/09/15 03:03:05;;;;;;;3.67;3.38;;;19.90;99.90;;;;;;10451298;28;20257;-91
2022/09/15 03:08:08;;;;;;;4.85;3.47;;;19.90;99.90;;;;;;10457131;28;20199;-91
2022/09/15 03:13:10;;;;;;;4.10;3.67;;;19.90;99.90;;;;;;10435877;28;20242;-91
2022/09/15 03:18:13;;;;;;;4.45;4.05;;;19.90;99.90;;;;;;10469211;28;20283;-91
2022/09/15 03:23:15;;;;;;;5.57;3.38;;;19.90;99.90;;;;;;10444283;28;20222;-91
2022/09/15 03:28:17;;;;;;;4.25;3.33;;;19.90;99.90;;;;;;10482987;28;20213;-91
2022/09/15 03:33:21;;;;;;;4.00;3.58;;;19.90;99.90;;;;;;10486359;28;20203;-90
2022/09/15 03:38:24;;;;;;;3.70;3.00;;;19.90;99.90;;;;;;10461607;28;20285;-90
2022/09/15 03:43:28;;;;;;;3.95;3.65;;;19.90;99.90;;;;;;10455116;28;20218;-91
2022/09/15 03:48:34;;;;;;;5.03;3.47;;;19.90;99.90;;;;;;10494624;28;20187;-91
2022/09/15 03:53:39;;;;;;;5.72;3.70;;;19.90;99.90;;;;;;10474901;28;20178;-90
2022/09/15 03:58:41;;;;;;;5.38;4.18;;;19.90;99.90;;;;;;10495313;28;20258;-91
2022/09/15 04:03:44;;;;;;;4.60;3.85;;;19.90;99.90;;;;;;10464908;28;20250;-90
2022/09/15 04:08:53;;;;;;;4.13;3.17;;;19.90;99.90;;;;;;10464010;28;20214;-92
2022/09/15 04:13:56;;;;;;;5.75;4.22;;;19.90;99.90;;;;;;10487810;28;20225;-90
2022/09/15 04:18:58;;;;;;;3.83;3.47;;;19.90;99.90;;;;;;10488204;28;20241;-91
2022/09/15 04:24:03;;;;;;;5.93;3.95;;;19.90;99.90;;;;;;10505645;28;20229;-90
2022/09/15 04:29:16;;;;;;;4.85;3.75;;;19.90;99.90;;;;;;10504551;28;20205;-89
2022/09/15 04:34:18;;;;;;;4.68;3.97;;;19.90;99.90;;;;;;10487739;28;20209;-90
2022/09/15 04:39:21;;;;;;;4.72;3.88;;;20.00;99.90;;;;;;10512908;28;20174;-90
2022/09/15 04:44:26;;;;;;;4.57;3.60;;;20.00;99.90;;;;;;10495421;28;20206;-90
2022/09/15 04:49:28;;;;;;;4.55;3.88;;;20.00;99.90;;;;;;10483225;28;20199;-90
2022/09/15 04:54:33;;;;;;;7.05;4.07;;;20.00;99.90;;;;;;10519708;28;20183;-90
2022/09/15 04:59:35;;;;;;;4.90;4.03;;;20.00;99.90;;;;;;10507024;28;20183;-90
2022/09/15 05:04:38;;;;;;;6.05;4.72;;;20.00;99.90;;;;;;10510353;28;20226;-91
2022/09/15 05:09:40;;;;;;;12.27;4.73;;;15.70;99.90;;;;;;10506787;28;20191;-89
2022/09/15 05:14:43;;;;;;;7.00;4.60;;;17.40;99.90;;;;;;10510444;28;20183;-90
2022/09/15 05:19:46;;;;;;;10.03;4.47;;;18.10;99.90;;;;;;10513027;28;20203;-89
2022/09/15 05:24:48;;;;;;;7.63;3.40;;;18.80;99.90;;;;;;10503806;28;20211;-89
2022/09/15 05:29:50;;;;;;;13.57;4.00;;;18.80;99.90;;;;;;10514165;28;20225;-90
2022/09/15 05:35:13;;;;;;;6.07;3.88;;;18.80;99.90;;;;;;10527866;28;20206;-89
2022/09/15 05:40:16;;;;;;;7.38;3.33;;;19.20;99.90;;;;;;10517136;28;20178;-90
2022/09/15 05:45:21;;;;;;;4.80;3.45;;;18.90;99.90;;;;;;10535148;28;20212;-90
2022/09/15 05:50:24;;;;;;;5.78;3.25;;;18.60;99.90;;;;;;10492603;28;20221;-89
2022/09/15 05:55:27;;;;;;;3.60;3.08;;;19.00;99.90;;;;;;10522794;28;20201;-90
2022/09/15 06:00:29;;;;;;;7.68;4.40;;;19.10;99.90;;;;;;10487489;28;20484;-90
2022/09/15 06:05:32;;;;;;;5.65;3.40;;;19.40;99.90;;;;;;10505990;28;20245;-90
2022/09/15 06:10:35;;;;;;;5.43;3.33;;;19.30;99.90;;;;;;10455240;28;20195;-91
2022/09/15 06:15:38;;;;;;;6.47;3.42;;;19.40;99.90;;;;;;10430171;28;20257;-89
2022/09/15 06:20:41;;;;;;;4.38;3.28;;;19.10;99.90;;;;;;10466148;28;20221;-91
2022/09/15 06:25:43;;;;;;;7.30;3.13;;;19.10;99.90;;;;;;10455207;28;20223;-90
2022/09/15 06:30:48;;;;;;;6.57;2.73;;;18.70;99.90;;;;;;10471544;28;20573;-94
2022/09/15 06:35:51;;;;;;;10.07;3.90;;;18.30;99.90;;;;;;10433727;28;20237;-94
2022/09/15 06:40:55;;;;;;;7.80;3.57;;;18.40;99.90;;;;;;10446119;28;20532;-94
2022/09/15 06:46:06;;;;;;;7.80;2.90;;;18.80;99.90;;;;;;10426805;28;20215;-94
2022/09/15 06:51:11;;;;;;;8.13;2.87;;;19.30;99.90;;;;;;10429488;28;20257;-90
2022/09/15 06:56:19;;;;;;;6.68;2.85;;;18.80;99.90;;;;;;10450091;28;20199;-89
2022/09/15 07:01:27;;;;;;;5.45;3.28;;;19.00;99.90;;;;;;10456055;28;20204;-89
2022/09/15 07:06:31;;;;;;;6.07;3.55;;;19.70;99.90;;;;;;10435527;28;20545;-89
2022/09/15 07:11:34;;;;;;;6.82;4.30;;;20.10;99.90;;;;;;10402799;28;20273;-90
2022/09/15 07:16:37;;;;;;;10.68;4.72;;;20.10;99.90;;;;;;10418450;28;20288;-91
2022/09/15 07:21:39;;;;;;;5.32;4.38;;;20.70;99.90;;;;;;10416854;28;20697;-90
2022/09/15 07:26:42;;;;;;;10.48;3.03;;;20.40;99.90;;;;;;10417390;28;20601;-90
2022/09/15 07:31:44;;;;;;;8.02;5.55;;;20.40;99.90;;;;;;10417396;28;20754;-90
2022/09/15 07:36:47;;;;;;;6.03;4.35;;;;;;;;;;10444666;28;20269;-92
2022/09/15 07:41:50;;;;;;;6.35;5.03;;;20.60;99.90;;;;;;10440092;28;20219;-90
2022/09/15 07:46:52;;;;;;;2.90;2.22;;;20.90;99.90;;;;;;10455811;28;20272;-91
2022/09/15 07:51:55;;;;;;;5.43;3.55;;;20.80;99.90;;;;;;10420422;28;20210;-91
2022/09/15 07:56:57;;;;;;;6.93;5.28;;;20.90;99.90;;;;;;10446753;28;20236;-91
2022/09/15 08:02:00;;;;;;;9.57;6.03;;;21.00;99.90;;;;;;10458447;28;20214;-91
2022/09/15 08:07:03;;;;;;;9.68;4.38;;;21.40;99.90;;;;;;10453349;28;20207;-91
2022/09/15 08:12:06;;;;;;;6.75;5.03;;;21.50;99.90;;;;;;10475992;28;20203;-90
2022/09/15 08:17:18;;;;;;;7.25;3.83;;;20.50;99.90;;;;;;10455663;28;20283;-90
2022/09/15 08:22:24;;;;;;;9.75;4.32;;;19.60;99.90;;;;;;10462315;28;20280;-90
2022/09/15 08:27:27;;;;;;;9.02;5.80;;;20.50;99.90;;;;;;10447085;28;20199;-92
2022/09/15 08:32:30;;;;;;;6.07;4.82;;;20.40;99.90;;;;;;10499834;28;20268;-92
2022/09/15 08:37:35;;;;;;;6.75;3.15;;;20.40;99.90;;;;;;10497059;28;20194;-91
2022/09/15 08:42:39;;;;;;;5.45;2.78;;;20.50;99.90;;;;;;10487254;28;20253;-91
2022/09/15 08:47:50;;;;;;;6.97;3.42;;;20.70;99.90;;;;;;10452444;28;20198;-91
2022/09/15 08:53:12;;;;;;;4.88;2.22;;;20.30;99.90;;;;;;10436567;28;20595;-91
2022/09/15 08:58:36;;;;;;;5.50;3.97;;;20.40;99.90;;;;;;10434434;28;20215;-91
2022/09/15 09:04:16;;;;;;;2.15;1.60;;;20.80;99.90;;;;;;10446001;28;20268;-90
2022/09/15 09:09:34;;;;;;;7.57;3.47;;;20.80;99.90;;;;;;10449594;28;20572;-90
2022/09/15 09:14:55;;;;;;;5.03;3.58;;;20.90;99.90;;;;;;10424788;28;20257;-90
2022/09/15 09:20:00;;;;;;;6.30;5.30;;;20.90;99.90;;;;;;10445752;28;20206;-90
2022/09/15 09:25:03;;;;;;;6.75;4.63;;;21.20;99.90;;;;;;10395916;28;20250;-90
2022/09/15 09:30:30;;;;;;;7.32;5.57;;;21.20;99.90;;;;;;10419736;28;20231;-90
2022/09/15 09:35:47;;;;;;;6.07;5.55;;;21.10;99.90;;;;;;10081852;28;10000410;-90
2022/09/15 09:40:50;;;;;;;6.97;4.50;;;20.60;99.90;;;;;;10431012;28;20261;-90
2022/09/15 09:45:53;;;;;;;6.53;3.80;;;21.00;99.90;;;;;;10392189;28;20219;-90
2022/09/15 09:50:56;;;;;;;10.60;3.85;;;20.70;99.90;;;;;;10419267;28;20304;-89
2022/09/15 09:56:10;;;;;;;3.00;2.60;;;21.00;99.90;;;;;;10437616;28;20685;-89
2022/09/15 10:01:18;;;;;;;8.27;4.43;;;20.40;99.90;;;;;;10437042;28;20243;-90
2022/09/15 10:06:21;;;;;;;6.13;3.92;;;20.70;99.90;;;;;;10436421;28;20289;-90
2022/09/15 10:11:44;;;;;;;5.75;4.78;;;20.80;99.90;;;;;;10455664;28;20194;-90
2022/09/15 10:17:04;;;;;;;5.18;4.65;;;20.70;99.90;;;;;;10438147;28;20261;-90
2022/09/15 10:22:07;;;;;;;5.78;5.10;;;20.70;99.90;;;;;;10437331;28;20203;-90
2022/09/15 10:27:24;;;;;;;3.55;3.20;;;21.10;99.90;;;;;;10438313;28;20191;-90
2022/09/15 10:32:29;;;;;;;4.78;4.38;;;20.80;99.90;;;;;;10446568;28;20272;-91
2022/09/15 10:37:44;;;;;;;6.15;5.03;;;21.20;99.90;;;;;;10423567;28;20265;-91
2022/09/15 10:42:52;;;;;;;7.00;6.03;;;21.20;99.90;;;;;;10445549;28;20320;-91
2022/09/15 10:48:01;;;;;;;6.20;4.75;;;21.20;99.90;;;;;;10437322;28;20203;-91
2022/09/15 10:53:13;;;;;;;5.07;4.57;;;21.10;99.90;;;;;;10434915;28;20257;-91
2022/09/15 10:58:38;;;;;;;4.72;3.90;;;21.30;99.90;;;;;;10431462;28;20613;-91
2022/09/15 11:03:46;;;;;;;4.80;4.40;;;20.90;99.90;;;;;;10453986;28;20841;-90
2022/09/15 11:08:54;;;;;;;3.25;2.95;;;21.10;99.90;;;;;;10424880;28;20666;-92
2022/09/15 11:14:16;;;;;;;5.57;2.72;;;20.70;99.90;;;;;;10420628;28;20265;-91
2022/09/15 11:19:42;;;;;;;5.00;4.50;;;20.60;99.90;;;;;;10450787;28;20266;-91
2022/09/15 11:25:05;;;;;;;5.68;4.72;;;21.10;99.90;;;;;;10489968;28;20250;-91
2022/09/15 11:30:23;;;;;;;4.35;3.95;;;20.90;99.90;;;;;;10466754;28;20231;-91
2022/09/15 11:35:52;;;;;;;5.50;5.00;;;20.90;99.90;;;;;;10454681;28;20198;-90
2022/09/15 11:41:18;;;;;;;6.07;3.90;;;21.00;99.90;;;;;;10448947;28;20207;-91
2022/09/15 11:46:58;;;;;;;5.55;4.95;;;20.60;99.90;;;;;;10432421;28;20791;-90
2022/09/15 11:52:21;;;;;;;4.50;3.70;;;20.90;99.90;;;;;;10396935;28;20231;-91
2022/09/15 11:57:40;;;;;;;4.43;4.03;;;20.20;99.90;;;;;;10380185;28;20251;-91
2022/09/15 12:02:55;;;;;;;6.70;1.45;;;20.90;99.90;;;;;;10393220;28;20322;-92
2022/09/15 12:08:30;;;;;;;3.65;1.50;;;20.40;99.90;;;;;;10418090;28;20220;-92
2022/09/15 12:13:35;;;;;;;4.45;4.00;;;20.60;99.90;;;;;;10423283;28;20239;-91
2022/09/15 12:18:48;;;;;;;4.30;3.78;;;20.80;99.90;;;;;;10448930;28;20284;-91
2022/09/15 12:24:06;;;;;;;6.32;4.55;;;21.00;99.90;;;;;;10402904;28;20250;-91
2022/09/15 12:29:28;;;;;;;3.50;3.20;;;20.90;99.90;;;;;;10422351;28;20655;-91
2022/09/15 12:34:37;;;;;;;4.82;2.65;;;21.00;99.90;;;;;;10446570;28;20206;-89
2022/09/15 12:39:41;;;;;;;4.07;3.78;;;20.90;99.90;;;;;;10431540;28;20242;-89
2022/09/15 12:44:51;;;;;;;3.80;3.13;;;21.20;99.90;;;;;;10429185;28;20328;-90
2022/09/15 12:49:58;;;;;;;1.58;1.42;;;20.80;99.90;;;;;;10445774;28;20752;-90
2022/09/15 12:55:03;;;;;;;5.15;1.95;;;20.20;99.90;;;;;;10429857;28;20260;-89
2022/09/15 13:00:19;;;;;;;3.90;3.10;;;19.90;99.90;;;;;;10431294;28;20203;-90
2022/09/15 13:05:40;;;;;;;2.80;1.83;;;20.10;99.90;;;;;;10447243;28;20662;-90
2022/09/15 13:11:13;;;;;;;3.70;1.92;;;18.60;99.90;;;;;;10431299;28;20733;-90
2022/09/15 13:16:40;;;;;;;3.20;2.90;;;18.90;99.90;;;;;;10398186;28;20326;-91
2022/09/15 13:22:08;;;;;;;3.38;3.10;;;19.60;99.90;;;;;;10428453;28;20623;-89
2022/09/15 13:27:15;;;;;;;3.08;2.78;;;20.00;99.90;;;;;;10456996;28;20258;-91
2022/09/15 13:32:51;;;;;;;1.65;1.05;;;19.60;99.90;;;;;;10396838;28;20709;-91
2022/09/15 13:38:22;;;;;;;2.50;1.33;;;18.20;99.90;;;;;;10415474;28;20243;-91
2022/09/15 13:44:06;;;;;;;3.63;1.23;;;18.30;99.90;;;;;;10426003;28;20425;-91
2022/09/15 13:49:36;;;;;;;6.67;2.60;;;18.00;99.90;;;;;;10397453;28;20196;-91
2022/09/15 13:55:20;;;;;;;2.40;1.90;;;19.00;99.90;;;;;;10414105;28;20207;-90
2022/09/15 14:00:27;;;;;;;1.90;1.00;;;19.50;99.90;;;;;;10426211;28;20211;-91
2022/09/15 14:05:34;;;;;;;2.15;1.75;;;19.70;99.90;;;;;;10456320;28;20250;-92
2022/09/15 14:10:54;;;;;;;7.93;2.13;;;19.70;99.20;;;;;;10437385;28;20581;-92
2022/09/15 14:16:07;;;;;;;2.65;1.05;;;19.90;99.90;;;;;;10468465;28;20258;-91
2022/09/15 14:21:20;;;;;;;2.72;2.00;;;19.50;99.90;;;;;;10457764;28;20202;-92
2022/09/15 14:26:29;;;;;;;2.97;0.73;;;19.90;99.90;;;;;;10457370;28;20704;-95
2022/09/15 14:31:39;;;;;;;42.55;3.33;;;20.20;96.80;;;;;;10432882;28;20195;-91
2022/09/15 14:36:42;;;;;;;20.10;3.25;;;19.90;95.90;;;;;;10451199;28;20276;-91
2022/09/15 14:41:45;;;;;;;6.90;1.98;;;20.30;96.70;;;;;;10452818;28;20230;-91
2022/09/15 14:46:48;;;;;;;2.65;0.77;;;19.70;99.30;;;;;;10452133;28;21040;-91
2022/09/15 14:51:52;;;;;;;9.83;1.70;;;20.00;96.10;;;;;;10394764;28;20231;-91
2022/09/15 14:56:59;;;;;;;3.63;0.95;;;20.20;99.90;;;;;;10434315;28;20242;-91
2022/09/15 15:02:07;;;;;;;11.07;1.60;;;20.60;99.10;;;;;;10451667;28;20676;-91
2022/09/15 15:07:30;;;;;;;7.22;1.33;;;20.60;99.90;;;;;;10452097;28;20243;-92
2022/09/15 15:12:48;;;;;;;4.38;1.05;;;20.70;98.70;;;;;;10450056;28;20602;-91
2022/09/15 15:17:53;;;;;;;5.20;1.20;;;20.60;99.50;;;;;;10434247;28;20262;-91
2022/09/15 15:23:22;;;;;;;7.55;1.58;;;20.50;99.90;;;;;;10450252;28;20242;-91
2022/09/15 15:28:30;;;;;;;2.92;1.42;;;20.30;96.50;;;;;;10449584;28;20253;-91
2022/09/15 15:33:33;;;;;;;6.07;2.17;;;20.50;99.70;;;;;;10439654;28;20685;-90
2022/09/15 15:38:45;;;;;;;4.93;1.38;;;20.70;99.40;;;;;;10448953;28;20670;-91
2022/09/15 15:43:57;;;;;;;2.30;1.55;;;20.50;96.70;;;;;;10438501;28;20258;-91
2022/09/15 15:49:00;;;;;;;5.43;1.27;;;20.70;99.90;;;;;;10432668;28;20675;-91
2022/09/15 15:54:03;;;;;;;7.47;1.60;;;20.70;99.90;;;;;;10445054;28;20756;-91
2022/09/15 15:59:05;;;;;;;2.00;1.05;;;20.80;99.90;;;;;;10422860;28;20266;-91
2022/09/15 16:04:10;;;;;;;2.20;0.68;;;20.40;99.90;;;;;;10422271;28;20306;-90
2022/09/15 16:09:13;;;;;;;4.45;0.98;;;20.10;95.20;;;;;;10444972;28;20284;-91
2022/09/15 16:14:16;;;;;;;3.17;1.25;;;20.10;97.00;;;;;;10402323;28;20239;-90
2022/09/15 16:19:18;;;;;;;3.15;0.82;;;20.30;96.30;;;;;;10408946;28;20285;-91
2022/09/15 16:24:21;;;;;;;1.77;1.02;;;20.50;96.10;;;;;;10391670;28;20273;-91
2022/09/15 16:29:28;;;;;;;1.35;0.90;;;20.40;96.80;;;;;;10409380;28;20211;-90
2022/09/15 16:34:31;;;;;;;1.50;0.98;;;20.40;96.90;;;;;;10421692;28;20638;-90
2022/09/15 16:39:33;;;;;;;3.03;1.10;;;20.50;97.10;;;;;;10399414;28;20276;-91
2022/09/15 16:44:37;;;;;;;1.77;0.98;;;20.60;97.70;;;;;;10398925;28;20301;-90
2022/09/15 16:49:40;;;;;;;5.15;1.30;;;20.50;96.90;;;;;;10424750;28;20195;-90
2022/09/15 16:54:42;;;;;;;1.65;1.08;;;17.30;99.90;;;;;;10403703;28;20242;-90
2022/09/15 16:59:45;;;;;;;5.18;1.10;;;18.00;99.90;;;;;;10434189;28;20234;-91
2022/09/15 17:04:47;;;;;;;1.80;1.13;;;19.60;99.90;;;;;;10430208;28;20379;-90
2022/09/15 17:09:51;;;;;;;2.45;1.13;;;20.10;99.90;;;;;;10444365;28;20284;-91
2022/09/15 17:14:54;;;;;;;2.55;1.40;;;20.30;99.90;;;;;;10407980;28;20284;-90
2022/09/15 17:19:56;;;;;;;1.55;0.98;;;20.30;99.90;;;;;;10412867;28;20277;-90
2022/09/15 17:24:59;;;;;;;5.30;1.23;;;20.30;99.90;;;;;;10397968;28;20251;-91
2022/09/15 17:30:01;;;;;;;3.00;0.90;;;20.40;99.90;;;;;;10436801;28;20222;-92
2022/09/15 17:35:18;;;;;;;2.30;1.23;;;20.40;99.90;;;;;;10419048;28;20199;-92
2022/09/15 17:40:20;;;;;;;2.40;0.90;;;20.40;99.90;;;;;;10414823;28;20249;-92
2022/09/15 17:45:29;;;;;;;1.90;0.90;;;20.40;99.90;;;;;;10416946;28;20300;-91
2022/09/15 17:50:35;;;;;;;5.93;1.20;;;20.40;99.90;;;;;;10431492;28;20203;-91
2022/09/15 17:55:38;;;;;;;1.10;1.00;;;20.40;99.90;;;;;;10436585;28;20747;-91
2022/09/15 18:00:42;;;;;;;3.38;1.38;;;20.40;99.90;;;;;;10415062;28;20234;-91
2022/09/15 18:05:45;;;;;;;4.30;1.48;;;20.40;99.90;;;;;;10416978;28;20281;-91
2022/09/15 18:10:48;;;;;;;1.52;0.95;;;20.40;99.90;;;;;;10416851;28;20234;-91
2022/09/15 18:15:50;;;;;;;1.10;1.00;;;20.40;99.90;;;;;;10459458;28;20312;-92
2022/09/15 18:20:56;;;;;;;2.70;1.10;;;20.40;99.90;;;;;;10437098;28;20253;-91
2022/09/15 18:25:59;;;;;;;2.13;1.30;;;20.40;99.90;;;;;;10440082;28;20651;-91
2022/09/15 18:31:02;;;;;;;4.20;1.50;;;20.40;99.90;;;;;;10416790;28;20227;-91
2022/09/15 18:36:06;;;;;;;3.80;1.10;;;20.30;99.90;;;;;;10435801;28;20207;-91
2022/09/15 18:41:10;;;;;;;1.13;0.85;;;20.30;99.90;;;;;;10419478;28;20621;-92
2022/09/15 18:46:13;;;;;;;1.80;1.25;;;20.30;99.90;;;;;;10444608;28;20258;-90
2022/09/15 18:51:16;;;;;;;1.33;1.00;;;20.30;99.90;;;;;;10410018;28;20293;-91
2022/09/15 18:56:30;;;;;;;3.40;1.40;;;20.40;99.90;;;;;;10422006;28;20229;-91
2022/09/15 19:01:33;;;;;;;1.35;1.25;;;20.40;99.90;;;;;;10456184;28;20210;-90
2022/09/15 19:06:36;;;;;;;1.75;1.40;;;20.40;99.90;;;;;;10445533;28;20266;-91
2022/09/15 19:11:38;;;;;;;3.13;1.30;;;20.40;99.90;;;;;;10454492;28;20351;-90
2022/09/15 19:16:41;;;;;;;1.45;1.10;;;20.40;99.90;;;;;;10448406;28;20706;-91
2022/09/15 19:21:59;;;;;;;2.38;1.50;;;20.40;99.90;;;;;;10437959;28;20276;-91
2022/09/15 19:27:07;;;;;;;2.75;1.98;;;20.40;99.90;;;;;;10407232;28;20255;-91
2022/09/15 19:32:12;;;;;;;2.20;1.20;;;20.20;99.90;;;;;;10377042;28;20207;-91
2022/09/15 19:37:17;;;;;;;2.20;1.60;;;20.10;99.90;;;;;;10393469;28;20226;-92
2022/09/15 19:42:20;;;;;;;3.60;1.90;;;19.20;99.90;;;;;;10391207;28;20215;-92
2022/09/15 19:47:22;;;;;;;4.45;2.13;;;20.10;99.90;;;;;;10422366;28;20250;-92
2022/09/15 19:52:26;;;;;;;2.17;1.65;;;20.30;99.90;;;;;;10407966;28;20227;-91
2022/09/15 19:57:28;;;;;;;2.90;1.70;;;20.40;99.90;;;;;;10414011;28;20678;-91
2022/09/15 20:02:31;;;;;;;3.40;1.67;;;20.20;99.90;;;;;;10408079;28;20216;-92
2022/09/15 20:07:35;;;;;;;1.60;1.38;;;20.30;99.90;;;;;;10424173;28;20316;-90
2022/09/15 20:12:38;;;;;;;2.08;1.65;;;20.30;99.90;;;;;;10433358;28;20652;-90
2022/09/15 20:17:42;;;;;;;2.75;1.25;;;20.30;99.90;;;;;;10429026;28;20243;-91
2022/09/15 20:22:45;;;;;;;2.40;1.67;;;20.10;99.90;;;;;;10435259;28;20316;-90
2022/09/15 20:27:51;;;;;;;3.10;1.90;;;20.20;99.90;;;;;;10414221;28;20629;-91
2022/09/15 20:32:54;;;;;;;2.45;1.52;;;20.20;99.90;;;;;;10431621;28;20276;-91
2022/09/15 20:37:57;;;;;;;2.47;1.27;;;20.10;99.90;;;;;;10391465;28;20203;-91
2022/09/15 20:43:01;;;;;;;1.92;1.20;;;20.10;99.90;;;;;;10398951;28;20752;-90
2022/09/15 20:48:04;;;;;;;1.75;1.35;;;20.10;99.90;;;;;;10390597;28;20328;-90
2022/09/15 20:53:07;;;;;;;2.65;1.38;;;20.10;99.90;;;;;;10408439;28;20658;-91
2022/09/15 20:58:11;;;;;;;3.03;1.38;;;20.00;99.90;;;;;;10417010;28;20308;-91
2022/09/15 21:03:14;;;;;;;2.88;1.45;;;20.00;99.90;;;;;;10429474;28;20260;-91
2022/09/15 21:08:17;;;;;;;2.00;1.30;;;20.00;99.90;;;;;;10399877;28;20316;-90
2022/09/15 21:13:21;;;;;;;3.75;1.08;;;20.20;99.90;;;;;;10405308;28;20199;-91
2022/09/15 21:18:32;;;;;;;1.48;1.38;;;20.00;99.90;;;;;;10379624;28;20332;-91
2022/09/15 21:23:40;;;;;;;2.22;1.20;;;19.80;99.90;;;;;;10394878;28;20246;-91
2022/09/15 21:28:43;;;;;;;1.35;1.25;;;20.00;99.90;;;;;;10431505;28;20277;-90
2022/09/15 21:33:47;;;;;;;2.25;1.40;;;20.00;99.90;;;;;;10422976;28;20242;-90
2022/09/15 21:38:52;;;;;;;3.00;1.45;;;20.00;99.90;;;;;;10404745;28;20261;-90
2022/09/15 21:43:57;;;;;;;1.42;1.00;;;20.10;99.90;;;;;;10437288;28;20254;-90
2022/09/15 21:49:00;;;;;;;1.67;1.33;;;20.20;99.90;;;;;;10398566;28;20259;-90
2022/09/15 21:54:03;;;;;;;1.52;1.42;;;20.20;99.90;;;;;;10418291;28;20222;-89
2022/09/15 21:59:07;;;;;;;2.17;1.40;;;20.20;99.90;;;;;;10437032;28;20264;-90
2022/09/15 22:04:10;;;;;;;2.60;1.40;;;20.20;99.90;;;;;;10421395;28;20312;-90
2022/09/15 22:09:16;;;;;;;3.33;1.42;;;19.90;99.90;;;;;;10453992;28;20235;-90
2022/09/15 22:14:20;;;;;;;1.92;1.50;;;20.00;99.90;;;;;;10393962;28;20247;-91
2022/09/15 22:19:23;;;;;;;2.35;1.23;;;19.90;99.90;;;;;;10415221;28;20255;-89
2022/09/15 22:24:25;;;;;;;4.20;1.65;;;20.00;99.90;;;;;;10395750;28;20285;-90
2022/09/15 22:29:28;;;;;;;4.38;1.30;;;20.10;99.90;;;;;;10423555;28;20728;-91
2022/09/15 22:34:31;;;;;;;1.75;1.40;;;20.00;99.90;;;;;;10435447;28;20256;-90
2022/09/15 22:39:34;;;;;;;2.50;1.45;;;20.00;99.90;;;;;;10436416;28;20234;-90
2022/09/15 22:44:56;;;;;;;1.50;1.10;;;19.90;99.90;;;;;;10427788;28;20679;-90
2022/09/15 22:49:59;;;;;;;2.50;1.63;;;20.00;99.90;;;;;;10378271;28;20239;-91
2022/09/15 22:55:02;;;;;;;1.67;1.10;;;19.90;99.90;;;;;;10398223;28;20249;-91
2022/09/15 23:00:05;;;;;;;2.13;1.27;;;20.00;99.90;;;;;;10419518;28;20840;-91
2022/09/15 23:05:09;;;;;;;1.98;1.33;;;19.80;99.90;;;;;;10429368;28;20265;-90
2022/09/15 23:10:11;;;;;;;4.13;1.13;;;19.60;99.90;;;;;;10434816;28;20970;-91
2022/09/15 23:15:14;;;;;;;2.25;1.38;;;19.80;99.90;;;;;;10393049;28;20258;-90
2022/09/15 23:20:16;;;;;;;2.03;1.40;;;19.90;99.90;;;;;;10411866;28;20271;-90
2022/09/15 23:25:19;;;;;;;2.30;1.48;;;19.90;99.90;;;;;;10411074;28;20350;-90
2022/09/15 23:30:21;;;;;;;3.45;1.08;;;19.90;99.90;;;;;;10393099;28;20231;-90
2022/09/15 23:35:24;;;;;;;2.00;1.33;;;19.80;99.90;;;;;;10384616;28;20242;-90
2022/09/15 23:40:28;;;;;;;1.55;1.20;;;19.80;99.90;;;;;;10393102;28;20626;-90
2022/09/15 23:45:30;;;;;;;1.40;1.30;;;19.80;99.90;;;;;;10376498;28;20259;-90
2022/09/15 23:50:34;;;;;;;1.88;1.40;;;19.80;99.90;;;;;;10409989;28;20231;-90
2022/09/15 23:55:37;;;;;;;1.85;1.67;;;19.80;99.90;;;;;;10392101;28;20690;-89
